sensor_id;sensor_type;location;lat;lon;timestamp;temperature;humidity
27900;DHT22;15243;50.726;7.080;2023-06-14T00:02:04;16.50;1.00
27900;DHT22;15243;50.726;7.080;2023-06-14T00:04:31;16.40;1.00
27900;DHT22;15243;50.726;7.080;2023-06-14T00:06:58;16.40;1.00
27900;DHT22;15243;50.726;7.080;2023-06-14T00:09:26;16.30;1.00
27900;DHT22;15243;50.726;7.080;2023-06-14T00:11:54;16.40;1.00
27900;DHT22;15243;50.726;7.080;2023-06-14T00:14:21;16.30;1.00
27900;DHT22;15243;50.726;7.080;2023-06-14T00:16:48;16.40;1.00
27900;DHT22;15243;50.726;7.080;2023-06-14T00:19:15;16.50;1.00
27900;DHT22;15243;50.726;7.080;2023-06-14T00:21:43;16.40;1.00
27900;DHT22;15243;50.726;7.080;2023-06-14T00:24:10;16.50;1.00
27900;DHT22;15243;50.726;7.080;2023-06-14T00:26:37;16.70;1.00
27900;DHT22;15243;50.726;7.080;2023-06-14T00:29:04;16.90;1.00
27900;DHT22;15243;50.726;7.080;2023-06-14T00:31:31;16.80;1.00
27900;DHT22;15243;50.726;7.080;2023-06-14T00:33:58;16.70;1.00
27900;DHT22;15243;50.726;7.080;2023-06-14T00:36:25;16.60;1.00
27900;DHT22;15243;50.726;7.080;2023-06-14T00:38:52;16.60;1.00
27900;DHT22;15243;50.726;7.080;2023-06-14T00:41:19;16.50;1.00
27900;DHT22;15243;50.726;7.080;2023-06-14T00:43:47;16.50;1.00
27900;DHT22;15243;50.726;7.080;2023-06-14T00:46:14;16.40;1.00
27900;DHT22;15243;50.726;7.080;2023-06-14T00:48:42;16.40;1.00
27900;DHT22;15243;50.726;7.080;2023-06-14T00:51:09;16.40;1.00
27900;DHT22;15243;50.726;7.080;2023-06-14T00:53:36;16.40;1.00
27900;DHT22;15243;50.726;7.080;2023-06-14T00:56:06;16.40;1.00
27900;DHT22;15243;50.726;7.080;2023-06-14T00:58:33;16.50;1.00
27900;DHT22;15243;50.726;7.080;2023-06-14T01:01:00;16.50;1.00
27900;DHT22;15243;50.726;7.080;2023-06-14T01:03:29;16.40;1.00
27900;DHT22;15243;50.726;7.080;2023-06-14T01:06:21;16.40;1.00
27900;DHT22;15243;50.726;7.080;2023-06-14T01:11:59;16.30;1.00
27900;DHT22;15243;50.726;7.080;2023-06-14T01:14:29;16.10;1.00
27900;DHT22;15243;50.726;7.080;2023-06-14T01:16:58;16.10;1.00
27900;DHT22;15243;50.726;7.080;2023-06-14T01:19:30;16.00;1.00
27900;DHT22;15243;50.726;7.080;2023-06-14T01:22:01;16.10;1.00
27900;DHT22;15243;50.726;7.080;2023-06-14T01:24:29;15.90;1.00
27900;DHT22;15243;50.726;7.080;2023-06-14T01:26:59;15.80;2.00
27900;DHT22;15243;50.726;7.080;2023-06-14T01:29:27;15.70;7.40
27900;DHT22;15243;50.726;7.080;2023-06-14T01:32:00;15.70;12.80
27900;DHT22;15243;50.726;7.080;2023-06-14T01:34:27;15.70;4.50
27900;DHT22;15243;50.726;7.080;2023-06-14T01:36:55;15.50;29.80
27900;DHT22;15243;50.726;7.080;2023-06-14T01:39:23;15.40;44.20
27900;DHT22;15243;50.726;7.080;2023-06-14T01:41:51;15.40;43.60
27900;DHT22;15243;50.726;7.080;2023-06-14T01:44:19;15.20;59.80
27900;DHT22;15243;50.726;7.080;2023-06-14T01:46:47;15.20;50.00
27900;DHT22;15243;50.726;7.080;2023-06-14T01:49:14;15.20;54.60
27900;DHT22;15243;50.726;7.080;2023-06-14T01:51:41;15.10;64.80
27900;DHT22;15243;50.726;7.080;2023-06-14T01:54:08;15.00;61.90
27900;DHT22;15243;50.726;7.080;2023-06-14T01:56:35;15.00;75.80
27900;DHT22;15243;50.726;7.080;2023-06-14T01:59:02;15.00;79.50
27900;DHT22;15243;50.726;7.080;2023-06-14T02:01:29;15.20;62.70
27900;DHT22;15243;50.726;7.080;2023-06-14T02:03:57;15.10;68.50
27900;DHT22;15243;50.726;7.080;2023-06-14T02:06:26;15.00;72.40
27900;DHT22;15243;50.726;7.080;2023-06-14T02:08:55;15.10;59.70
27900;DHT22;15243;50.726;7.080;2023-06-14T02:11:22;15.10;63.60
27900;DHT22;15243;50.726;7.080;2023-06-14T02:13:49;15.00;63.30
27900;DHT22;15243;50.726;7.080;2023-06-14T02:16:16;15.00;71.70
27900;DHT22;15243;50.726;7.080;2023-06-14T02:18:44;14.90;71.40
27900;DHT22;15243;50.726;7.080;2023-06-14T02:21:11;14.90;74.10
27900;DHT22;15243;50.726;7.080;2023-06-14T02:23:38;14.80;82.20
27900;DHT22;15243;50.726;7.080;2023-06-14T02:26:05;14.70;92.70
27900;DHT22;15243;50.726;7.080;2023-06-14T02:28:32;14.70;90.50
27900;DHT22;15243;50.726;7.080;2023-06-14T02:30:59;14.60;94.50
27900;DHT22;15243;50.726;7.080;2023-06-14T02:33:27;14.60;93.60
27900;DHT22;15243;50.726;7.080;2023-06-14T02:35:54;14.50;96.10
27900;DHT22;15243;50.726;7.080;2023-06-14T02:38:21;14.40;99.30
27900;DHT22;15243;50.726;7.080;2023-06-14T02:40:48;14.30;97.70
27900;DHT22;15243;50.726;7.080;2023-06-14T02:43:15;14.30;99.90
27900;DHT22;15243;50.726;7.080;2023-06-14T02:45:44;14.20;99.90
27900;DHT22;15243;50.726;7.080;2023-06-14T02:48:11;14.20;99.90
27900;DHT22;15243;50.726;7.080;2023-06-14T02:50:38;14.10;99.90
27900;DHT22;15243;50.726;7.080;2023-06-14T02:56:01;14.00;99.90
27900;DHT22;15243;50.726;7.080;2023-06-14T02:58:31;14.00;99.90
27900;DHT22;15243;50.726;7.080;2023-06-14T03:00:57;13.90;99.90
27900;DHT22;15243;50.726;7.080;2023-06-14T03:03:30;13.90;99.90
27900;DHT22;15243;50.726;7.080;2023-06-14T03:05:58;13.80;99.90
27900;DHT22;15243;50.726;7.080;2023-06-14T03:08:32;13.90;99.90
27900;DHT22;15243;50.726;7.080;2023-06-14T03:11:05;13.80;99.90
27900;DHT22;15243;50.726;7.080;2023-06-14T03:13:32;14.00;99.90
27900;DHT22;15243;50.726;7.080;2023-06-14T03:16:00;13.90;99.90
27900;DHT22;15243;50.726;7.080;2023-06-14T03:18:30;13.80;99.90
27900;DHT22;15243;50.726;7.080;2023-06-14T03:20:57;13.80;99.90
27900;DHT22;15243;50.726;7.080;2023-06-14T03:23:25;13.70;99.90
27900;DHT22;15243;50.726;7.080;2023-06-14T03:25:52;13.60;99.90
27900;DHT22;15243;50.726;7.080;2023-06-14T03:28:19;13.60;99.90
27900;DHT22;15243;50.726;7.080;2023-06-14T03:30:47;13.60;99.90
27900;DHT22;15243;50.726;7.080;2023-06-14T03:33:15;13.60;99.90
27900;DHT22;15243;50.726;7.080;2023-06-14T03:35:43;13.60;99.90
27900;DHT22;15243;50.726;7.080;2023-06-14T03:38:10;13.80;99.90
27900;DHT22;15243;50.726;7.080;2023-06-14T03:40:37;13.80;99.90
27900;DHT22;15243;50.726;7.080;2023-06-14T03:43:04;13.70;99.90
27900;DHT22;15243;50.726;7.080;2023-06-14T03:45:31;13.70;99.90
27900;DHT22;15243;50.726;7.080;2023-06-14T03:47:58;13.60;99.90
27900;DHT22;15243;50.726;7.080;2023-06-14T03:50:27;13.60;99.90
27900;DHT22;15243;50.726;7.080;2023-06-14T03:52:54;13.60;99.90
27900;DHT22;15243;50.726;7.080;2023-06-14T03:55:21;13.60;99.90
27900;DHT22;15243;50.726;7.080;2023-06-14T03:57:55;13.50;99.90
27900;DHT22;15243;50.726;7.080;2023-06-14T04:00:23;13.60;99.90
27900;DHT22;15243;50.726;7.080;2023-06-14T04:02:50;13.60;99.90
27900;DHT22;15243;50.726;7.080;2023-06-14T04:05:17;13.70;99.90
27900;DHT22;15243;50.726;7.080;2023-06-14T04:07:48;13.80;99.90
27900;DHT22;15243;50.726;7.080;2023-06-14T04:10:15;13.90;99.90
27900;DHT22;15243;50.726;7.080;2023-06-14T04:12:43;14.00;99.90
27900;DHT22;15243;50.726;7.080;2023-06-14T04:15:10;14.00;99.90
27900;DHT22;15243;50.726;7.080;2023-06-14T04:17:40;13.90;99.90
27900;DHT22;15243;50.726;7.080;2023-06-14T04:20:08;13.90;99.90
27900;DHT22;15243;50.726;7.080;2023-06-14T04:22:36;14.00;99.90
27900;DHT22;15243;50.726;7.080;2023-06-14T04:25:04;13.90;99.90
27900;DHT22;15243;50.726;7.080;2023-06-14T04:27:33;13.90;99.90
27900;DHT22;15243;50.726;7.080;2023-06-14T04:30:03;13.90;99.90
27900;DHT22;15243;50.726;7.080;2023-06-14T04:32:32;13.90;99.90
27900;DHT22;15243;50.726;7.080;2023-06-14T04:35:07;13.90;99.90
27900;DHT22;15243;50.726;7.080;2023-06-14T04:37:35;14.10;99.90
27900;DHT22;15243;50.726;7.080;2023-06-14T04:40:07;14.10;99.90
27900;DHT22;15243;50.726;7.080;2023-06-14T04:42:38;14.20;99.90
27900;DHT22;15243;50.726;7.080;2023-06-14T04:45:08;14.30;99.90
27900;DHT22;15243;50.726;7.080;2023-06-14T04:47:35;14.40;99.90
27900;DHT22;15243;50.726;7.080;2023-06-14T04:50:04;14.50;99.90
27900;DHT22;15243;50.726;7.080;2023-06-14T04:52:31;14.60;99.90
27900;DHT22;15243;50.726;7.080;2023-06-14T04:55:00;14.70;99.90
27900;DHT22;15243;50.726;7.080;2023-06-14T04:57:27;14.80;99.90
27900;DHT22;15243;50.726;7.080;2023-06-14T04:59:54;14.80;99.90
27900;DHT22;15243;50.726;7.080;2023-06-14T05:02:23;15.00;98.50
27900;DHT22;15243;50.726;7.080;2023-06-14T05:04:51;15.10;99.00
27900;DHT22;15243;50.726;7.080;2023-06-14T05:07:18;15.30;96.40
27900;DHT22;15243;50.726;7.080;2023-06-14T05:09:46;15.50;87.30
27900;DHT22;15243;50.726;7.080;2023-06-14T05:12:14;15.70;83.80
27900;DHT22;15243;50.726;7.080;2023-06-14T05:14:45;15.80;62.70
27900;DHT22;15243;50.726;7.080;2023-06-14T05:17:12;16.00;39.70
27900;DHT22;15243;50.726;7.080;2023-06-14T05:19:40;16.10;25.90
27900;DHT22;15243;50.726;7.080;2023-06-14T05:22:07;16.20;16.80
27900;DHT22;15243;50.726;7.080;2023-06-14T05:24:34;16.30;20.50
27900;DHT22;15243;50.726;7.080;2023-06-14T05:27:01;16.40;19.70
27900;DHT22;15243;50.726;7.080;2023-06-14T05:29:28;16.50;1.00
27900;DHT22;15243;50.726;7.080;2023-06-14T05:31:56;16.60;1.00
27900;DHT22;15243;50.726;7.080;2023-06-14T05:34:24;16.70;1.00
27900;DHT22;15243;50.726;7.080;2023-06-14T05:36:51;16.80;1.00
27900;DHT22;15243;50.726;7.080;2023-06-14T05:39:18;17.00;1.00
27900;DHT22;15243;50.726;7.080;2023-06-14T05:41:44;17.10;1.00
27900;DHT22;15243;50.726;7.080;2023-06-14T05:44:14;17.30;1.00
27900;DHT22;15243;50.726;7.080;2023-06-14T05:46:41;17.30;1.00
27900;DHT22;15243;50.726;7.080;2023-06-14T05:49:08;17.40;1.00
27900;DHT22;15243;50.726;7.080;2023-06-14T05:51:35;17.50;1.00
27900;DHT22;15243;50.726;7.080;2023-06-14T05:54:02;17.60;1.00
27900;DHT22;15243;50.726;7.080;2023-06-14T05:56:29;17.60;1.00
27900;DHT22;15243;50.726;7.080;2023-06-14T05:58:56;17.80;1.00
27900;DHT22;15243;50.726;7.080;2023-06-14T06:01:23;17.90;1.00
27900;DHT22;15243;50.726;7.080;2023-06-14T06:03:50;18.00;1.00
27900;DHT22;15243;50.726;7.080;2023-06-14T06:06:17;18.10;1.00
27900;DHT22;15243;50.726;7.080;2023-06-14T06:08:44;18.20;1.00
27900;DHT22;15243;50.726;7.080;2023-06-14T06:11:12;18.30;1.00
27900;DHT22;15243;50.726;7.080;2023-06-14T06:13:39;18.20;1.00
27900;DHT22;15243;50.726;7.080;2023-06-14T06:16:07;18.20;1.00
27900;DHT22;15243;50.726;7.080;2023-06-14T06:18:34;18.40;1.00
27900;DHT22;15243;50.726;7.080;2023-06-14T06:21:04;18.50;1.00
27900;DHT22;15243;50.726;7.080;2023-06-14T06:23:31;18.60;1.00
27900;DHT22;15243;50.726;7.080;2023-06-14T06:25:58;18.60;1.00
27900;DHT22;15243;50.726;7.080;2023-06-14T06:28:25;18.60;1.00
27900;DHT22;15243;50.726;7.080;2023-06-14T06:30:53;18.80;1.00
27900;DHT22;15243;50.726;7.080;2023-06-14T06:33:21;18.90;1.00
27900;DHT22;15243;50.726;7.080;2023-06-14T06:35:48;18.90;1.00
27900;DHT22;15243;50.726;7.080;2023-06-14T06:38:15;19.00;1.00
27900;DHT22;15243;50.726;7.080;2023-06-14T06:40:42;19.00;1.00
27900;DHT22;15243;50.726;7.080;2023-06-14T06:43:09;19.10;1.00
27900;DHT22;15243;50.726;7.080;2023-06-14T06:45:36;19.00;1.00
27900;DHT22;15243;50.726;7.080;2023-06-14T06:48:03;19.10;1.00
27900;DHT22;15243;50.726;7.080;2023-06-14T06:50:31;19.10;1.00
27900;DHT22;15243;50.726;7.080;2023-06-14T06:52:58;19.30;1.00
27900;DHT22;15243;50.726;7.080;2023-06-14T06:55:24;19.30;1.00
27900;DHT22;15243;50.726;7.080;2023-06-14T06:57:51;19.40;1.00
27900;DHT22;15243;50.726;7.080;2023-06-14T07:00:21;19.40;1.00
27900;DHT22;15243;50.726;7.080;2023-06-14T07:02:48;19.40;1.00
27900;DHT22;15243;50.726;7.080;2023-06-14T07:05:15;19.50;1.00
27900;DHT22;15243;50.726;7.080;2023-06-14T07:07:42;19.60;1.00
27900;DHT22;15243;50.726;7.080;2023-06-14T07:10:09;19.60;1.00
27900;DHT22;15243;50.726;7.080;2023-06-14T07:12:37;19.70;1.00
27900;DHT22;15243;50.726;7.080;2023-06-14T07:15:09;19.90;1.00
27900;DHT22;15243;50.726;7.080;2023-06-14T07:17:36;20.10;1.00
27900;DHT22;15243;50.726;7.080;2023-06-14T07:20:04;20.10;1.00
27900;DHT22;15243;50.726;7.080;2023-06-14T07:22:35;20.20;1.00
27900;DHT22;15243;50.726;7.080;2023-06-14T07:25:02;20.20;1.00
27900;DHT22;15243;50.726;7.080;2023-06-14T07:27:30;20.10;1.00
27900;DHT22;15243;50.726;7.080;2023-06-14T07:29:57;20.30;1.00
27900;DHT22;15243;50.726;7.080;2023-06-14T07:32:24;20.30;1.00
27900;DHT22;15243;50.726;7.080;2023-06-14T07:34:51;20.40;1.00
27900;DHT22;15243;50.726;7.080;2023-06-14T07:37:18;20.70;1.00
27900;DHT22;15243;50.726;7.080;2023-06-14T07:39:45;20.60;1.00
27900;DHT22;15243;50.726;7.080;2023-06-14T07:42:12;20.80;1.00
27900;DHT22;15243;50.726;7.080;2023-06-14T07:44:39;20.70;1.00
27900;DHT22;15243;50.726;7.080;2023-06-14T07:47:06;21.00;1.00
27900;DHT22;15243;50.726;7.080;2023-06-14T07:49:33;21.10;1.00
27900;DHT22;15243;50.726;7.080;2023-06-14T07:52:00;21.10;1.00
27900;DHT22;15243;50.726;7.080;2023-06-14T07:54:27;21.10;1.00
27900;DHT22;15243;50.726;7.080;2023-06-14T07:56:55;21.20;1.00
27900;DHT22;15243;50.726;7.080;2023-06-14T07:59:23;21.30;99.90
27900;DHT22;15243;50.726;7.080;2023-06-14T08:01:50;21.20;1.00
27900;DHT22;15243;50.726;7.080;2023-06-14T08:04:17;21.40;1.00
27900;DHT22;15243;50.726;7.080;2023-06-14T08:06:44;21.40;99.90
27900;DHT22;15243;50.726;7.080;2023-06-14T08:09:13;21.70;1.00
27900;DHT22;15243;50.726;7.080;2023-06-14T08:11:40;21.90;99.90
27900;DHT22;15243;50.726;7.080;2023-06-14T08:14:08;21.80;99.90
27900;DHT22;15243;50.726;7.080;2023-06-14T08:16:35;21.70;99.90
27900;DHT22;15243;50.726;7.080;2023-06-14T08:19:02;21.60;99.90
27900;DHT22;15243;50.726;7.080;2023-06-14T08:21:30;21.70;99.90
27900;DHT22;15243;50.726;7.080;2023-06-14T08:24:00;21.70;99.90
27900;DHT22;15243;50.726;7.080;2023-06-14T08:26:27;21.80;99.90
27900;DHT22;15243;50.726;7.080;2023-06-14T08:28:58;22.10;99.90
27900;DHT22;15243;50.726;7.080;2023-06-14T08:31:25;22.20;99.90
27900;DHT22;15243;50.726;7.080;2023-06-14T08:33:52;22.40;99.90
27900;DHT22;15243;50.726;7.080;2023-06-14T08:36:19;22.00;99.90
27900;DHT22;15243;50.726;7.080;2023-06-14T08:38:46;22.20;99.90
27900;DHT22;15243;50.726;7.080;2023-06-14T08:41:21;22.50;99.90
27900;DHT22;15243;50.726;7.080;2023-06-14T08:43:49;22.70;99.90
27900;DHT22;15243;50.726;7.080;2023-06-14T08:46:18;22.50;99.90
27900;DHT22;15243;50.726;7.080;2023-06-14T08:48:49;22.40;99.90
27900;DHT22;15243;50.726;7.080;2023-06-14T08:51:19;22.60;99.90
27900;DHT22;15243;50.726;7.080;2023-06-14T08:53:53;22.50;99.90
27900;DHT22;15243;50.726;7.080;2023-06-14T08:56:21;22.70;99.90
27900;DHT22;15243;50.726;7.080;2023-06-14T08:58:49;22.80;99.90
27900;DHT22;15243;50.726;7.080;2023-06-14T09:01:16;22.80;99.90
27900;DHT22;15243;50.726;7.080;2023-06-14T09:03:44;22.90;99.90
27900;DHT22;15243;50.726;7.080;2023-06-14T09:06:12;22.90;99.90
27900;DHT22;15243;50.726;7.080;2023-06-14T09:08:43;23.10;99.90
27900;DHT22;15243;50.726;7.080;2023-06-14T09:11:15;23.30;99.90
27900;DHT22;15243;50.726;7.080;2023-06-14T09:13:42;23.20;99.90
27900;DHT22;15243;50.726;7.080;2023-06-14T09:16:09;22.80;99.90
27900;DHT22;15243;50.726;7.080;2023-06-14T09:18:45;23.10;99.90
27900;DHT22;15243;50.726;7.080;2023-06-14T09:21:17;22.20;99.90
27900;DHT22;15243;50.726;7.080;2023-06-14T09:23:45;22.60;99.90
27900;DHT22;15243;50.726;7.080;2023-06-14T09:26:17;23.10;99.90
27900;DHT22;15243;50.726;7.080;2023-06-14T09:28:47;23.40;99.90
27900;DHT22;15243;50.726;7.080;2023-06-14T09:31:17;23.40;99.90
27900;DHT22;15243;50.726;7.080;2023-06-14T09:33:46;23.60;99.90
27900;DHT22;15243;50.726;7.080;2023-06-14T09:36:26;23.80;99.90
27900;DHT22;15243;50.726;7.080;2023-06-14T09:39:03;23.80;99.90
27900;DHT22;15243;50.726;7.080;2023-06-14T09:41:39;24.00;99.90
27900;DHT22;15243;50.726;7.080;2023-06-14T09:44:10;24.00;99.90
27900;DHT22;15243;50.726;7.080;2023-06-14T09:46:48;24.20;99.90
27900;DHT22;15243;50.726;7.080;2023-06-14T09:49:16;24.50;99.90
27900;DHT22;15243;50.726;7.080;2023-06-14T09:51:45;24.40;99.90
27900;DHT22;15243;50.726;7.080;2023-06-14T09:54:15;24.00;99.90
27900;DHT22;15243;50.726;7.080;2023-06-14T09:56:47;24.10;99.90
27900;DHT22;15243;50.726;7.080;2023-06-14T09:59:16;24.30;99.90
27900;DHT22;15243;50.726;7.080;2023-06-14T10:01:45;24.30;90.10
27900;DHT22;15243;50.726;7.080;2023-06-14T10:04:15;24.40;99.90
27900;DHT22;15243;50.726;7.080;2023-06-14T10:06:46;24.60;99.90
27900;DHT22;15243;50.726;7.080;2023-06-14T10:09:13;24.20;82.40
27900;DHT22;15243;50.726;7.080;2023-06-14T10:11:41;24.30;38.80
27900;DHT22;15243;50.726;7.080;2023-06-14T10:14:12;24.10;52.50
27900;DHT22;15243;50.726;7.080;2023-06-14T10:19:36;24.50;99.90
27900;DHT22;15243;50.726;7.080;2023-06-14T10:22:12;24.50;96.00
27900;DHT22;15243;50.726;7.080;2023-06-14T10:24:45;24.60;99.90
27900;DHT22;15243;50.726;7.080;2023-06-14T10:27:15;24.80;99.90
27900;DHT22;15243;50.726;7.080;2023-06-14T10:30:07;25.00;99.90
27900;DHT22;15243;50.726;7.080;2023-06-14T10:32:34;24.60;92.40
27900;DHT22;15243;50.726;7.080;2023-06-14T10:35:05;24.70;60.00
27900;DHT22;15243;50.726;7.080;2023-06-14T10:37:36;24.90;94.70
27900;DHT22;15243;50.726;7.080;2023-06-14T10:40:03;25.00;81.30
27900;DHT22;15243;50.726;7.080;2023-06-14T10:42:32;25.30;99.90
27900;DHT22;15243;50.726;7.080;2023-06-14T10:45:00;25.40;1.00
27900;DHT22;15243;50.726;7.080;2023-06-14T10:50:11;25.60;38.60
27900;DHT22;15243;50.726;7.080;2023-06-14T10:52:42;26.10;44.80
27900;DHT22;15243;50.726;7.080;2023-06-14T10:57:43;26.30;18.40
27900;DHT22;15243;50.726;7.080;2023-06-14T11:00:22;25.70;7.20
27900;DHT22;15243;50.726;7.080;2023-06-14T11:11:13;25.50;92.70
27900;DHT22;15243;50.726;7.080;2023-06-14T11:13:43;25.40;26.10
27900;DHT22;15243;50.726;7.080;2023-06-14T11:18:40;25.20;1.00
27900;DHT22;15243;50.726;7.080;2023-06-14T11:21:08;25.30;1.00
27900;DHT22;15243;50.726;7.080;2023-06-14T11:23:38;24.70;1.00
27900;DHT22;15243;50.726;7.080;2023-06-14T11:26:05;24.70;99.90
27900;DHT22;15243;50.726;7.080;2023-06-14T11:28:39;24.90;70.30
27900;DHT22;15243;50.726;7.080;2023-06-14T11:31:07;25.30;51.10
27900;DHT22;15243;50.726;7.080;2023-06-14T11:33:34;25.30;65.80
27900;DHT22;15243;50.726;7.080;2023-06-14T11:36:03;25.20;1.00
27900;DHT22;15243;50.726;7.080;2023-06-14T11:38:35;25.00;76.70
27900;DHT22;15243;50.726;7.080;2023-06-14T11:41:03;25.00;41.50
27900;DHT22;15243;50.726;7.080;2023-06-14T11:43:31;25.20;65.60
27900;DHT22;15243;50.726;7.080;2023-06-14T11:46:00;24.90;69.70
27900;DHT22;15243;50.726;7.080;2023-06-14T11:48:38;25.10;60.40
27900;DHT22;15243;50.726;7.080;2023-06-14T11:51:06;25.30;36.90
27900;DHT22;15243;50.726;7.080;2023-06-14T11:53:33;25.30;66.60
27900;DHT22;15243;50.726;7.080;2023-06-14T11:56:01;25.40;92.60
27900;DHT22;15243;50.726;7.080;2023-06-14T11:58:30;25.00;46.50
27900;DHT22;15243;50.726;7.080;2023-06-14T12:00:57;24.80;54.90
27900;DHT22;15243;50.726;7.080;2023-06-14T12:03:25;25.50;99.90
27900;DHT22;15243;50.726;7.080;2023-06-14T12:06:07;26.10;80.40
27900;DHT22;15243;50.726;7.080;2023-06-14T12:08:36;26.80;24.20
27900;DHT22;15243;50.726;7.080;2023-06-14T12:11:11;27.40;1.00
27900;DHT22;15243;50.726;7.080;2023-06-14T12:13:42;27.10;1.00
27900;DHT22;15243;50.726;7.080;2023-06-14T12:16:11;26.90;1.00
27900;DHT22;15243;50.726;7.080;2023-06-14T12:18:40;26.90;1.00
27900;DHT22;15243;50.726;7.080;2023-06-14T12:21:09;27.10;1.00
27900;DHT22;15243;50.726;7.080;2023-06-14T12:23:47;27.30;1.00
27900;DHT22;15243;50.726;7.080;2023-06-14T12:26:16;27.20;99.90
27900;DHT22;15243;50.726;7.080;2023-06-14T12:28:44;26.90;98.00
27900;DHT22;15243;50.726;7.080;2023-06-14T12:31:13;26.70;99.90
27900;DHT22;15243;50.726;7.080;2023-06-14T12:33:40;26.90;1.00
27900;DHT22;15243;50.726;7.080;2023-06-14T12:36:10;27.10;37.90
27900;DHT22;15243;50.726;7.080;2023-06-14T12:38:37;27.30;81.70
27900;DHT22;15243;50.726;7.080;2023-06-14T12:41:04;27.00;58.40
27900;DHT22;15243;50.726;7.080;2023-06-14T12:43:34;27.10;27.50
27900;DHT22;15243;50.726;7.080;2023-06-14T12:46:02;26.90;39.90
27900;DHT22;15243;50.726;7.080;2023-06-14T12:48:29;27.00;11.80
27900;DHT22;15243;50.726;7.080;2023-06-14T12:50:58;27.20;1.00
27900;DHT22;15243;50.726;7.080;2023-06-14T12:53:25;27.20;53.10
27900;DHT22;15243;50.726;7.080;2023-06-14T12:55:52;27.30;33.60
27900;DHT22;15243;50.726;7.080;2023-06-14T12:58:21;27.60;37.70
27900;DHT22;15243;50.726;7.080;2023-06-14T13:00:50;28.10;36.70
27900;DHT22;15243;50.726;7.080;2023-06-14T13:03:17;27.90;1.00
27900;DHT22;15243;50.726;7.080;2023-06-14T13:05:44;27.80;1.00
27900;DHT22;15243;50.726;7.080;2023-06-14T13:08:12;27.70;1.00
27900;DHT22;15243;50.726;7.080;2023-06-14T13:10:40;28.00;1.00
27900;DHT22;15243;50.726;7.080;2023-06-14T13:13:06;28.10;1.00
27900;DHT22;15243;50.726;7.080;2023-06-14T13:15:34;28.80;13.40
27900;DHT22;15243;50.726;7.080;2023-06-14T13:18:01;29.20;8.70
27900;DHT22;15243;50.726;7.080;2023-06-14T13:20:30;28.50;4.10
27900;DHT22;15243;50.726;7.080;2023-06-14T13:22:59;29.40;56.10
27900;DHT22;15243;50.726;7.080;2023-06-14T13:25:26;29.60;1.00
27900;DHT22;15243;50.726;7.080;2023-06-14T13:27:53;30.00;1.60
27900;DHT22;15243;50.726;7.080;2023-06-14T13:30:20;29.60;1.00
27900;DHT22;15243;50.726;7.080;2023-06-14T13:32:47;29.20;1.00
27900;DHT22;15243;50.726;7.080;2023-06-14T13:35:16;28.80;1.00
27900;DHT22;15243;50.726;7.080;2023-06-14T13:37:44;29.10;1.00
27900;DHT22;15243;50.726;7.080;2023-06-14T13:40:11;29.40;1.00
27900;DHT22;15243;50.726;7.080;2023-06-14T13:42:39;30.10;1.00
27900;DHT22;15243;50.726;7.080;2023-06-14T13:45:07;30.80;1.00
27900;DHT22;15243;50.726;7.080;2023-06-14T13:47:35;31.30;1.00
27900;DHT22;15243;50.726;7.080;2023-06-14T13:50:03;30.70;1.00
27900;DHT22;15243;50.726;7.080;2023-06-14T13:52:30;31.60;1.00
27900;DHT22;15243;50.726;7.080;2023-06-14T13:54:57;32.70;1.00
27900;DHT22;15243;50.726;7.080;2023-06-14T13:57:24;32.30;1.00
27900;DHT22;15243;50.726;7.080;2023-06-14T13:59:52;32.70;99.90
27900;DHT22;15243;50.726;7.080;2023-06-14T14:02:22;31.40;99.90
27900;DHT22;15243;50.726;7.080;2023-06-14T14:04:49;31.60;99.90
27900;DHT22;15243;50.726;7.080;2023-06-14T14:07:20;32.70;99.90
27900;DHT22;15243;50.726;7.080;2023-06-14T14:09:48;33.20;99.90
27900;DHT22;15243;50.726;7.080;2023-06-14T14:12:15;33.20;99.90
27900;DHT22;15243;50.726;7.080;2023-06-14T14:14:42;32.40;99.90
27900;DHT22;15243;50.726;7.080;2023-06-14T14:17:09;31.60;99.90
27900;DHT22;15243;50.726;7.080;2023-06-14T14:19:36;31.00;99.90
27900;DHT22;15243;50.726;7.080;2023-06-14T14:22:04;31.10;99.90
27900;DHT22;15243;50.726;7.080;2023-06-14T14:24:31;30.30;99.90
27900;DHT22;15243;50.726;7.080;2023-06-14T14:26:58;31.30;99.90
27900;DHT22;15243;50.726;7.080;2023-06-14T14:29:27;31.50;99.90
27900;DHT22;15243;50.726;7.080;2023-06-14T14:31:57;30.60;99.90
27900;DHT22;15243;50.726;7.080;2023-06-14T14:34:25;28.90;99.90
27900;DHT22;15243;50.726;7.080;2023-06-14T14:36:52;28.80;99.90
27900;DHT22;15243;50.726;7.080;2023-06-14T14:39:19;28.30;99.90
27900;DHT22;15243;50.726;7.080;2023-06-14T14:41:46;29.40;1.00
27900;DHT22;15243;50.726;7.080;2023-06-14T14:44:13;31.00;1.00
27900;DHT22;15243;50.726;7.080;2023-06-14T14:46:40;32.40;1.00
27900;DHT22;15243;50.726;7.080;2023-06-14T14:49:08;32.00;1.00
27900;DHT22;15243;50.726;7.080;2023-06-14T14:51:35;33.10;1.00
27900;DHT22;15243;50.726;7.080;2023-06-14T14:54:02;32.90;1.00
27900;DHT22;15243;50.726;7.080;2023-06-14T14:56:29;32.30;1.00
27900;DHT22;15243;50.726;7.080;2023-06-14T14:58:56;31.40;99.90
27900;DHT22;15243;50.726;7.080;2023-06-14T15:01:23;31.70;99.90
27900;DHT22;15243;50.726;7.080;2023-06-14T15:03:51;31.90;99.90
27900;DHT22;15243;50.726;7.080;2023-06-14T15:06:26;30.50;1.00
27900;DHT22;15243;50.726;7.080;2023-06-14T15:08:53;30.50;99.90
27900;DHT22;15243;50.726;7.080;2023-06-14T15:11:20;31.20;99.90
27900;DHT22;15243;50.726;7.080;2023-06-14T15:13:47;33.20;1.00
27900;DHT22;15243;50.726;7.080;2023-06-14T15:16:16;33.70;1.00
27900;DHT22;15243;50.726;7.080;2023-06-14T15:18:43;35.50;1.00
27900;DHT22;15243;50.726;7.080;2023-06-14T15:21:12;35.60;1.00
27900;DHT22;15243;50.726;7.080;2023-06-14T15:23:39;35.00;1.00
27900;DHT22;15243;50.726;7.080;2023-06-14T15:26:06;33.40;1.00
27900;DHT22;15243;50.726;7.080;2023-06-14T15:28:34;31.90;1.00
27900;DHT22;15243;50.726;7.080;2023-06-14T15:31:01;30.70;1.00
27900;DHT22;15243;50.726;7.080;2023-06-14T15:33:28;30.30;1.00
27900;DHT22;15243;50.726;7.080;2023-06-14T15:35:56;31.10;1.00
27900;DHT22;15243;50.726;7.080;2023-06-14T15:38:23;30.40;1.00
27900;DHT22;15243;50.726;7.080;2023-06-14T15:40:50;30.80;1.00
27900;DHT22;15243;50.726;7.080;2023-06-14T15:43:18;31.10;1.00
27900;DHT22;15243;50.726;7.080;2023-06-14T15:45:45;30.40;1.00
27900;DHT22;15243;50.726;7.080;2023-06-14T15:48:12;30.10;1.00
27900;DHT22;15243;50.726;7.080;2023-06-14T15:50:39;29.40;1.00
27900;DHT22;15243;50.726;7.080;2023-06-14T15:53:06;28.60;1.00
27900;DHT22;15243;50.726;7.080;2023-06-14T15:55:33;27.60;99.90
27900;DHT22;15243;50.726;7.080;2023-06-14T15:58:02;27.30;99.90
27900;DHT22;15243;50.726;7.080;2023-06-14T16:00:29;27.30;99.90
27900;DHT22;15243;50.726;7.080;2023-06-14T16:02:56;27.90;99.90
27900;DHT22;15243;50.726;7.080;2023-06-14T16:05:24;28.20;99.90
27900;DHT22;15243;50.726;7.080;2023-06-14T16:07:52;28.60;99.90
27900;DHT22;15243;50.726;7.080;2023-06-14T16:10:19;28.80;99.90